WCOM7: Spring River, Waco, MO

Data processed at Sat Mar 10 2018 23:36


All information presented herein is the property of the government of the United States of America and may be revised or deleted at any time without prior notice.
Dissemination of this information without the expressed written consent of the Public Affairs Office, Tulsa District U.S. Army Corps of Engineers is strictly prohibited.
These data are gathered electronically and, as presented, have not undergone any form of quality control. These data are not guaranteed to be valid or correct.
Go to home page.
Go to station list.

Upstream stations:

Downstream station:
Previous Day
Next Day
Current Day
    
SHEF ID:       WCOM7     Spring River near Waco, MO
STATION TYPE:  

               PRECIP     STAGE  RIV-FLOW  BAT-LOAD
                   in        ft       cfs      volt
              Ccp-Rev   Ccp-Rev   Ccp-Rev   Ccp-Rev
(US/Central)
03/08 00:00      0.00      3.34      1071     12.77
03/08 01:00      0.00      3.35      1077     12.01
03/08 02:00      0.00      3.37      1091     12.65
03/08 03:00      0.00      3.33      1064     12.65
03/08 04:00      0.00      3.28      1030     12.65
03/08 05:00      0.00      3.33      1064     12.60
03/08 06:00      0.00      3.29      1037     12.60
03/08 07:00      0.00      3.33      1064     12.60
03/08 08:00      0.00      3.29      1037     12.71
03/08 09:00      0.00      3.28      1030     13.71
03/08 10:00      0.00      3.31      1050     14.65
03/08 11:00      0.00      3.28      1030     14.53
03/08 12:00      0.00      3.28      1030     14.47
03/08 13:00      0.00      3.30      1044     14.41
03/08 14:00      0.00      3.32      1057     14.30
03/08 15:00      0.00      3.26      1017     14.30
03/08 16:00      0.00      3.25      1010     14.18
03/08 17:00      0.00      3.29      1037     13.77
03/08 18:00      0.00      3.29      1037     13.83
03/08 19:00      0.00      3.30      1044     13.30
03/08 20:00      0.00      3.16       952     12.95
03/08 21:00      0.00      3.30      1044     12.89
03/08 22:00      0.00      3.24      1004     12.83
03/08 23:00      0.00      3.25      1010     12.83